sensor_id;sensor_type;location;lat;lon;timestamp;P1;durP1;ratioP1;P2;durP2;ratioP2
15629;SDS011;7914;50.842;0.166;2023-04-16T00:00:39;18.02;;;6.85;;
15629;SDS011;7914;50.842;0.166;2023-04-16T00:03:04;15.40;;;7.38;;
15629;SDS011;7914;50.842;0.166;2023-04-16T00:05:30;13.75;;;6.15;;
15629;SDS011;7914;50.842;0.166;2023-04-16T00:07:56;15.20;;;6.57;;
15629;SDS011;7914;50.842;0.166;2023-04-16T00:10:21;16.50;;;7.05;;
15629;SDS011;7914;50.842;0.166;2023-04-16T00:12:47;14.70;;;6.90;;
15629;SDS011;7914;50.842;0.166;2023-04-16T00:15:13;13.95;;;6.15;;
15629;SDS011;7914;50.842;0.166;2023-04-16T00:17:39;11.93;;;6.28;;
15629;SDS011;7914;50.842;0.166;2023-04-16T00:20:05;13.77;;;6.68;;
15629;SDS011;7914;50.842;0.166;2023-04-16T00:22:33;14.05;;;6.93;;
15629;SDS011;7914;50.842;0.166;2023-04-16T00:24:58;12.60;;;5.88;;
15629;SDS011;7914;50.842;0.166;2023-04-16T00:27:24;13.77;;;6.68;;
15629;SDS011;7914;50.842;0.166;2023-04-16T00:29:50;14.68;;;7.38;;
15629;SDS011;7914;50.842;0.166;2023-04-16T00:32:15;13.68;;;6.80;;
15629;SDS011;7914;50.842;0.166;2023-04-16T00:34:41;14.65;;;7.40;;
15629;SDS011;7914;50.842;0.166;2023-04-16T00:37:07;14.50;;;6.32;;
15629;SDS011;7914;50.842;0.166;2023-04-16T00:39:33;15.13;;;7.18;;
15629;SDS011;7914;50.842;0.166;2023-04-16T00:41:58;12.00;;;6.45;;
15629;SDS011;7914;50.842;0.166;2023-04-16T00:44:24;13.38;;;6.30;;
15629;SDS011;7914;50.842;0.166;2023-04-16T00:46:50;13.20;;;7.72;;
15629;SDS011;7914;50.842;0.166;2023-04-16T00:49:16;13.88;;;6.22;;
15629;SDS011;7914;50.842;0.166;2023-04-16T00:51:41;12.45;;;5.82;;
15629;SDS011;7914;50.842;0.166;2023-04-16T00:54:07;14.25;;;5.97;;
15629;SDS011;7914;50.842;0.166;2023-04-16T00:56:33;15.25;;;6.30;;
15629;SDS011;7914;50.842;0.166;2023-04-16T00:58:59;15.35;;;6.30;;
15629;SDS011;7914;50.842;0.166;2023-04-16T01:01:25;12.32;;;6.90;;
15629;SDS011;7914;50.842;0.166;2023-04-16T01:03:51;12.80;;;6.13;;
15629;SDS011;7914;50.842;0.166;2023-04-16T01:06:16;15.07;;;7.43;;
15629;SDS011;7914;50.842;0.166;2023-04-16T01:08:43;13.30;;;6.65;;
15629;SDS011;7914;50.842;0.166;2023-04-16T01:11:09;15.80;;;8.27;;
15629;SDS011;7914;50.842;0.166;2023-04-16T01:13:36;16.52;;;7.00;;
15629;SDS011;7914;50.842;0.166;2023-04-16T01:16:09;14.23;;;6.60;;
15629;SDS011;7914;50.842;0.166;2023-04-16T01:18:35;15.02;;;7.03;;
15629;SDS011;7914;50.842;0.166;2023-04-16T01:21:02;13.77;;;7.00;;
15629;SDS011;7914;50.842;0.166;2023-04-16T01:23:28;14.85;;;6.43;;
15629;SDS011;7914;50.842;0.166;2023-04-16T01:25:54;20.35;;;7.75;;
15629;SDS011;7914;50.842;0.166;2023-04-16T01:28:20;13.45;;;7.13;;
15629;SDS011;7914;50.842;0.166;2023-04-16T01:30:46;16.33;;;7.82;;
15629;SDS011;7914;50.842;0.166;2023-04-16T01:33:12;18.10;;;8.73;;
15629;SDS011;7914;50.842;0.166;2023-04-16T01:35:38;16.20;;;7.25;;
15629;SDS011;7914;50.842;0.166;2023-04-16T01:38:08;14.32;;;6.95;;
15629;SDS011;7914;50.842;0.166;2023-04-16T01:40:34;19.15;;;7.18;;
15629;SDS011;7914;50.842;0.166;2023-04-16T01:43:00;14.10;;;6.38;;
15629;SDS011;7914;50.842;0.166;2023-04-16T01:45:26;15.02;;;6.10;;
15629;SDS011;7914;50.842;0.166;2023-04-16T01:47:51;16.98;;;7.18;;
15629;SDS011;7914;50.842;0.166;2023-04-16T01:50:18;13.07;;;6.72;;
15629;SDS011;7914;50.842;0.166;2023-04-16T01:52:44;14.10;;;6.80;;
15629;SDS011;7914;50.842;0.166;2023-04-16T01:55:10;16.70;;;6.93;;
15629;SDS011;7914;50.842;0.166;2023-04-16T01:57:36;14.05;;;6.55;;
15629;SDS011;7914;50.842;0.166;2023-04-16T02:00:02;11.80;;;6.05;;
15629;SDS011;7914;50.842;0.166;2023-04-16T02:02:29;13.60;;;6.30;;
15629;SDS011;7914;50.842;0.166;2023-04-16T02:04:55;13.45;;;6.20;;
15629;SDS011;7914;50.842;0.166;2023-04-16T02:07:21;12.85;;;5.95;;
15629;SDS011;7914;50.842;0.166;2023-04-16T02:09:48;15.73;;;6.13;;
15629;SDS011;7914;50.842;0.166;2023-04-16T02:12:15;12.23;;;5.50;;
15629;SDS011;7914;50.842;0.166;2023-04-16T02:14:41;11.82;;;5.65;;
15629;SDS011;7914;50.842;0.166;2023-04-16T02:17:07;13.57;;;6.07;;
15629;SDS011;7914;50.842;0.166;2023-04-16T02:19:33;12.98;;;5.97;;
15629;SDS011;7914;50.842;0.166;2023-04-16T02:21:58;13.18;;;5.45;;
15629;SDS011;7914;50.842;0.166;2023-04-16T02:24:25;14.93;;;5.85;;
15629;SDS011;7914;50.842;0.166;2023-04-16T02:26:52;12.65;;;5.55;;
15629;SDS011;7914;50.842;0.166;2023-04-16T02:29:17;14.20;;;6.00;;
15629;SDS011;7914;50.842;0.166;2023-04-16T02:31:44;15.35;;;7.28;;
15629;SDS011;7914;50.842;0.166;2023-04-16T02:34:10;13.40;;;6.70;;
15629;SDS011;7914;50.842;0.166;2023-04-16T02:36:36;12.00;;;5.93;;
15629;SDS011;7914;50.842;0.166;2023-04-16T02:39:02;13.98;;;6.05;;
15629;SDS011;7914;50.842;0.166;2023-04-16T02:41:28;12.00;;;5.85;;
15629;SDS011;7914;50.842;0.166;2023-04-16T02:43:54;13.48;;;6.78;;
15629;SDS011;7914;50.842;0.166;2023-04-16T02:46:20;11.52;;;5.50;;
15629;SDS011;7914;50.842;0.166;2023-04-16T02:48:46;14.90;;;6.15;;
15629;SDS011;7914;50.842;0.166;2023-04-16T02:51:12;14.30;;;6.25;;
15629;SDS011;7914;50.842;0.166;2023-04-16T02:53:38;10.45;;;5.65;;
15629;SDS011;7914;50.842;0.166;2023-04-16T02:56:04;10.90;;;6.00;;
15629;SDS011;7914;50.842;0.166;2023-04-16T02:58:30;10.90;;;5.80;;
15629;SDS011;7914;50.842;0.166;2023-04-16T03:00:56;12.18;;;6.65;;
15629;SDS011;7914;50.842;0.166;2023-04-16T03:03:21;13.30;;;5.40;;
15629;SDS011;7914;50.842;0.166;2023-04-16T03:05:47;11.70;;;6.20;;
15629;SDS011;7914;50.842;0.166;2023-04-16T03:08:13;12.82;;;5.97;;
15629;SDS011;7914;50.842;0.166;2023-04-16T03:10:39;12.82;;;5.22;;
15629;SDS011;7914;50.842;0.166;2023-04-16T03:13:05;11.98;;;6.18;;
15629;SDS011;7914;50.842;0.166;2023-04-16T03:15:31;15.20;;;5.75;;
15629;SDS011;7914;50.842;0.166;2023-04-16T03:17:57;13.98;;;5.97;;
15629;SDS011;7914;50.842;0.166;2023-04-16T03:20:23;14.63;;;5.68;;
15629;SDS011;7914;50.842;0.166;2023-04-16T03:22:49;15.32;;;6.60;;
15629;SDS011;7914;50.842;0.166;2023-04-16T03:25:16;12.93;;;5.38;;
15629;SDS011;7914;50.842;0.166;2023-04-16T03:27:42;13.20;;;6.53;;
15629;SDS011;7914;50.842;0.166;2023-04-16T03:30:12;12.73;;;5.82;;
15629;SDS011;7914;50.842;0.166;2023-04-16T03:32:39;18.00;;;6.20;;
15629;SDS011;7914;50.842;0.166;2023-04-16T03:35:06;15.20;;;5.72;;
15629;SDS011;7914;50.842;0.166;2023-04-16T03:37:32;13.13;;;6.03;;
15629;SDS011;7914;50.842;0.166;2023-04-16T03:39:59;13.18;;;6.32;;
15629;SDS011;7914;50.842;0.166;2023-04-16T03:42:25;13.10;;;5.28;;
15629;SDS011;7914;50.842;0.166;2023-04-16T03:44:51;16.58;;;6.63;;
15629;SDS011;7914;50.842;0.166;2023-04-16T03:47:18;15.80;;;6.20;;
15629;SDS011;7914;50.842;0.166;2023-04-16T03:49:44;11.73;;;5.70;;
15629;SDS011;7914;50.842;0.166;2023-04-16T03:52:10;14.32;;;6.53;;
15629;SDS011;7914;50.842;0.166;2023-04-16T03:54:36;13.23;;;5.95;;
15629;SDS011;7914;50.842;0.166;2023-04-16T03:57:01;12.32;;;5.97;;
15629;SDS011;7914;50.842;0.166;2023-04-16T03:59:27;12.32;;;5.78;;
15629;SDS011;7914;50.842;0.166;2023-04-16T04:01:53;12.73;;;5.38;;
15629;SDS011;7914;50.842;0.166;2023-04-16T04:04:18;13.80;;;6.10;;
15629;SDS011;7914;50.842;0.166;2023-04-16T04:06:44;13.52;;;5.57;;
15629;SDS011;7914;50.842;0.166;2023-04-16T04:11:40;16.90;;;8.23;;
15629;SDS011;7914;50.842;0.166;2023-04-16T04:14:06;15.13;;;6.28;;
15629;SDS011;7914;50.842;0.166;2023-04-16T04:16:32;21.25;;;8.68;;
15629;SDS011;7914;50.842;0.166;2023-04-16T04:18:58;14.48;;;7.60;;
15629;SDS011;7914;50.842;0.166;2023-04-16T04:21:25;16.95;;;8.25;;
15629;SDS011;7914;50.842;0.166;2023-04-16T04:23:51;16.77;;;7.43;;
15629;SDS011;7914;50.842;0.166;2023-04-16T04:26:17;14.35;;;7.72;;
15629;SDS011;7914;50.842;0.166;2023-04-16T04:28:42;15.85;;;6.93;;
15629;SDS011;7914;50.842;0.166;2023-04-16T04:31:08;12.35;;;5.82;;
15629;SDS011;7914;50.842;0.166;2023-04-16T04:33:34;13.02;;;6.60;;
15629;SDS011;7914;50.842;0.166;2023-04-16T04:36:00;16.02;;;6.90;;
15629;SDS011;7914;50.842;0.166;2023-04-16T04:38:26;17.48;;;8.38;;
15629;SDS011;7914;50.842;0.166;2023-04-16T04:40:52;13.48;;;6.82;;
15629;SDS011;7914;50.842;0.166;2023-04-16T04:43:18;12.45;;;6.57;;
15629;SDS011;7914;50.842;0.166;2023-04-16T04:45:44;13.43;;;6.78;;
15629;SDS011;7914;50.842;0.166;2023-04-16T04:48:10;15.75;;;6.18;;
15629;SDS011;7914;50.842;0.166;2023-04-16T04:50:36;14.98;;;6.30;;
15629;SDS011;7914;50.842;0.166;2023-04-16T04:53:02;11.40;;;6.13;;
15629;SDS011;7914;50.842;0.166;2023-04-16T04:55:34;12.40;;;6.45;;
15629;SDS011;7914;50.842;0.166;2023-04-16T04:58:01;12.45;;;6.85;;
15629;SDS011;7914;50.842;0.166;2023-04-16T05:00:27;13.35;;;6.15;;
15629;SDS011;7914;50.842;0.166;2023-04-16T05:02:53;14.30;;;6.45;;
15629;SDS011;7914;50.842;0.166;2023-04-16T05:05:19;14.73;;;6.75;;
15629;SDS011;7914;50.842;0.166;2023-04-16T05:07:44;13.57;;;5.47;;
15629;SDS011;7914;50.842;0.166;2023-04-16T05:10:10;14.07;;;6.28;;
15629;SDS011;7914;50.842;0.166;2023-04-16T05:12:36;14.23;;;6.50;;
15629;SDS011;7914;50.842;0.166;2023-04-16T05:15:02;14.63;;;6.00;;
15629;SDS011;7914;50.842;0.166;2023-04-16T05:17:28;13.40;;;6.30;;
15629;SDS011;7914;50.842;0.166;2023-04-16T05:19:53;13.02;;;6.47;;
15629;SDS011;7914;50.842;0.166;2023-04-16T05:22:19;14.00;;;7.15;;
15629;SDS011;7914;50.842;0.166;2023-04-16T05:24:44;15.38;;;7.60;;
15629;SDS011;7914;50.842;0.166;2023-04-16T05:27:10;17.25;;;7.55;;
15629;SDS011;7914;50.842;0.166;2023-04-16T05:29:36;17.10;;;8.02;;
15629;SDS011;7914;50.842;0.166;2023-04-16T05:32:01;14.05;;;6.88;;
15629;SDS011;7914;50.842;0.166;2023-04-16T05:34:27;13.60;;;6.95;;
15629;SDS011;7914;50.842;0.166;2023-04-16T05:36:53;17.98;;;7.78;;
15629;SDS011;7914;50.842;0.166;2023-04-16T05:39:19;16.13;;;6.82;;
15629;SDS011;7914;50.842;0.166;2023-04-16T05:41:45;13.27;;;6.40;;
15629;SDS011;7914;50.842;0.166;2023-04-16T05:44:10;13.95;;;6.57;;
15629;SDS011;7914;50.842;0.166;2023-04-16T05:46:36;14.07;;;6.55;;
15629;SDS011;7914;50.842;0.166;2023-04-16T05:49:02;17.80;;;6.10;;
15629;SDS011;7914;50.842;0.166;2023-04-16T05:51:27;14.13;;;6.88;;
15629;SDS011;7914;50.842;0.166;2023-04-16T05:53:53;12.88;;;5.88;;
15629;SDS011;7914;50.842;0.166;2023-04-16T05:56:19;12.73;;;6.32;;
15629;SDS011;7914;50.842;0.166;2023-04-16T05:58:45;16.65;;;6.85;;
15629;SDS011;7914;50.842;0.166;2023-04-16T06:01:11;12.10;;;6.93;;
15629;SDS011;7914;50.842;0.166;2023-04-16T06:03:37;11.70;;;5.93;;
15629;SDS011;7914;50.842;0.166;2023-04-16T06:06:03;14.45;;;6.53;;
15629;SDS011;7914;50.842;0.166;2023-04-16T06:08:28;15.27;;;6.75;;
15629;SDS011;7914;50.842;0.166;2023-04-16T06:10:54;13.43;;;6.97;;
15629;SDS011;7914;50.842;0.166;2023-04-16T06:13:20;14.43;;;6.88;;
15629;SDS011;7914;50.842;0.166;2023-04-16T06:15:46;16.40;;;7.57;;
15629;SDS011;7914;50.842;0.166;2023-04-16T06:18:12;16.25;;;7.32;;
15629;SDS011;7914;50.842;0.166;2023-04-16T06:20:37;15.70;;;7.93;;
15629;SDS011;7914;50.842;0.166;2023-04-16T06:23:03;17.25;;;7.35;;
15629;SDS011;7914;50.842;0.166;2023-04-16T06:25:29;14.38;;;7.18;;
15629;SDS011;7914;50.842;0.166;2023-04-16T06:27:55;13.68;;;6.93;;
15629;SDS011;7914;50.842;0.166;2023-04-16T06:30:20;13.98;;;7.15;;
15629;SDS011;7914;50.842;0.166;2023-04-16T06:32:46;18.55;;;7.00;;
15629;SDS011;7914;50.842;0.166;2023-04-16T06:35:12;14.68;;;6.63;;
15629;SDS011;7914;50.842;0.166;2023-04-16T06:37:37;17.25;;;7.40;;
15629;SDS011;7914;50.842;0.166;2023-04-16T06:40:03;15.00;;;6.60;;
15629;SDS011;7914;50.842;0.166;2023-04-16T06:42:29;22.88;;;8.20;;
15629;SDS011;7914;50.842;0.166;2023-04-16T06:44:55;15.25;;;6.85;;
15629;SDS011;7914;50.842;0.166;2023-04-16T06:47:21;16.73;;;7.80;;
15629;SDS011;7914;50.842;0.166;2023-04-16T06:49:47;15.30;;;7.70;;
15629;SDS011;7914;50.842;0.166;2023-04-16T06:52:12;17.65;;;7.57;;
15629;SDS011;7914;50.842;0.166;2023-04-16T06:54:38;16.10;;;7.18;;
15629;SDS011;7914;50.842;0.166;2023-04-16T06:57:04;20.02;;;8.15;;
15629;SDS011;7914;50.842;0.166;2023-04-16T06:59:30;16.00;;;6.80;;
15629;SDS011;7914;50.842;0.166;2023-04-16T07:01:55;15.18;;;7.05;;
15629;SDS011;7914;50.842;0.166;2023-04-16T07:04:22;15.50;;;8.60;;
15629;SDS011;7914;50.842;0.166;2023-04-16T07:06:47;15.00;;;7.30;;
15629;SDS011;7914;50.842;0.166;2023-04-16T07:09:13;16.88;;;8.32;;
15629;SDS011;7914;50.842;0.166;2023-04-16T07:11:39;17.42;;;7.72;;
15629;SDS011;7914;50.842;0.166;2023-04-16T07:14:05;16.45;;;8.85;;
15629;SDS011;7914;50.842;0.166;2023-04-16T07:16:31;17.02;;;7.90;;
15629;SDS011;7914;50.842;0.166;2023-04-16T07:18:57;16.02;;;8.02;;
15629;SDS011;7914;50.842;0.166;2023-04-16T07:21:22;17.10;;;8.07;;
15629;SDS011;7914;50.842;0.166;2023-04-16T07:23:48;15.45;;;8.07;;
15629;SDS011;7914;50.842;0.166;2023-04-16T07:26:14;15.48;;;8.55;;
15629;SDS011;7914;50.842;0.166;2023-04-16T07:28:40;14.70;;;7.53;;
15629;SDS011;7914;50.842;0.166;2023-04-16T07:31:05;18.77;;;9.18;;
15629;SDS011;7914;50.842;0.166;2023-04-16T07:33:31;15.48;;;7.68;;
15629;SDS011;7914;50.842;0.166;2023-04-16T07:35:57;14.52;;;7.53;;
15629;SDS011;7914;50.842;0.166;2023-04-16T07:38:22;14.95;;;7.03;;
15629;SDS011;7914;50.842;0.166;2023-04-16T07:40:48;14.85;;;6.60;;
15629;SDS011;7914;50.842;0.166;2023-04-16T07:43:14;13.55;;;6.28;;
15629;SDS011;7914;50.842;0.166;2023-04-16T07:45:40;14.52;;;6.43;;
15629;SDS011;7914;50.842;0.166;2023-04-16T07:48:06;13.30;;;6.38;;
15629;SDS011;7914;50.842;0.166;2023-04-16T07:50:32;12.52;;;6.35;;
15629;SDS011;7914;50.842;0.166;2023-04-16T07:52:57;13.63;;;5.85;;
15629;SDS011;7914;50.842;0.166;2023-04-16T07:55:23;15.00;;;6.95;;
15629;SDS011;7914;50.842;0.166;2023-04-16T07:57:49;13.02;;;6.28;;
15629;SDS011;7914;50.842;0.166;2023-04-16T08:00:15;13.07;;;5.55;;
15629;SDS011;7914;50.842;0.166;2023-04-16T08:02:41;14.98;;;6.65;;
15629;SDS011;7914;50.842;0.166;2023-04-16T08:05:08;11.90;;;5.93;;
15629;SDS011;7914;50.842;0.166;2023-04-16T08:07:35;13.50;;;6.40;;
15629;SDS011;7914;50.842;0.166;2023-04-16T08:10:00;15.32;;;6.47;;
15629;SDS011;7914;50.842;0.166;2023-04-16T08:12:26;12.32;;;7.13;;
15629;SDS011;7914;50.842;0.166;2023-04-16T08:14:53;12.68;;;5.85;;
15629;SDS011;7914;50.842;0.166;2023-04-16T08:17:18;11.85;;;5.65;;
15629;SDS011;7914;50.842;0.166;2023-04-16T08:19:44;12.23;;;5.15;;
15629;SDS011;7914;50.842;0.166;2023-04-16T08:22:13;12.88;;;5.28;;
15629;SDS011;7914;50.842;0.166;2023-04-16T08:24:39;10.32;;;4.72;;
15629;SDS011;7914;50.842;0.166;2023-04-16T08:27:05;10.38;;;5.35;;
15629;SDS011;7914;50.842;0.166;2023-04-16T08:29:31;12.35;;;5.65;;
15629;SDS011;7914;50.842;0.166;2023-04-16T08:31:57;10.13;;;4.82;;
15629;SDS011;7914;50.842;0.166;2023-04-16T08:34:24;13.07;;;6.18;;
15629;SDS011;7914;50.842;0.166;2023-04-16T08:36:50;13.85;;;5.68;;
15629;SDS011;7914;50.842;0.166;2023-04-16T08:39:16;10.02;;;5.00;;
15629;SDS011;7914;50.842;0.166;2023-04-16T08:41:42;9.50;;;4.95;;
15629;SDS011;7914;50.842;0.166;2023-04-16T08:47:52;9.07;;;5.00;;
15629;SDS011;7914;50.842;0.166;2023-04-16T08:50:21;10.02;;;4.68;;
15629;SDS011;7914;50.842;0.166;2023-04-16T08:52:52;14.52;;;4.07;;
15629;SDS011;7914;50.842;0.166;2023-04-16T08:55:22;12.57;;;4.35;;
15629;SDS011;7914;50.842;0.166;2023-04-16T08:57:56;12.45;;;4.78;;
15629;SDS011;7914;50.842;0.166;2023-04-16T09:00:23;13.10;;;4.30;;
15629;SDS011;7914;50.842;0.166;2023-04-16T09:02:49;9.82;;;4.25;;
15629;SDS011;7914;50.842;0.166;2023-04-16T09:05:16;10.82;;;4.65;;
15629;SDS011;7914;50.842;0.166;2023-04-16T09:07:48;12.82;;;4.47;;
15629;SDS011;7914;50.842;0.166;2023-04-16T09:10:14;9.90;;;4.63;;
15629;SDS011;7914;50.842;0.166;2023-04-16T09:12:41;11.32;;;4.55;;
15629;SDS011;7914;50.842;0.166;2023-04-16T09:15:08;9.77;;;4.15;;
15629;SDS011;7914;50.842;0.166;2023-04-16T09:17:35;11.57;;;3.83;;
15629;SDS011;7914;50.842;0.166;2023-04-16T09:20:02;11.50;;;4.57;;
15629;SDS011;7914;50.842;0.166;2023-04-16T09:22:30;11.13;;;4.38;;
15629;SDS011;7914;50.842;0.166;2023-04-16T09:24:59;11.02;;;4.18;;
15629;SDS011;7914;50.842;0.166;2023-04-16T09:27:25;10.95;;;4.00;;
15629;SDS011;7914;50.842;0.166;2023-04-16T09:29:51;11.10;;;3.92;;
15629;SDS011;7914;50.842;0.166;2023-04-16T09:32:18;8.30;;;3.75;;
15629;SDS011;7914;50.842;0.166;2023-04-16T09:34:53;8.95;;;4.00;;
15629;SDS011;7914;50.842;0.166;2023-04-16T09:37:19;10.13;;;4.30;;
15629;SDS011;7914;50.842;0.166;2023-04-16T09:39:51;8.70;;;4.40;;
15629;SDS011;7914;50.842;0.166;2023-04-16T09:42:22;9.93;;;4.15;;
15629;SDS011;7914;50.842;0.166;2023-04-16T09:44:51;8.52;;;3.95;;
15629;SDS011;7914;50.842;0.166;2023-04-16T09:47:24;10.55;;;4.03;;
15629;SDS011;7914;50.842;0.166;2023-04-16T09:50:02;9.15;;;3.92;;
15629;SDS011;7914;50.842;0.166;2023-04-16T09:52:28;11.07;;;4.05;;
15629;SDS011;7914;50.842;0.166;2023-04-16T09:54:53;10.40;;;3.75;;
15629;SDS011;7914;50.842;0.166;2023-04-16T09:57:23;9.35;;;5.07;;
15629;SDS011;7914;50.842;0.166;2023-04-16T09:59:52;10.70;;;4.10;;
15629;SDS011;7914;50.842;0.166;2023-04-16T10:02:25;9.93;;;3.65;;
15629;SDS011;7914;50.842;0.166;2023-04-16T10:04:52;9.30;;;4.68;;
15629;SDS011;7914;50.842;0.166;2023-04-16T10:07:18;10.65;;;4.80;;
15629;SDS011;7914;50.842;0.166;2023-04-16T10:09:45;11.85;;;4.65;;
15629;SDS011;7914;50.842;0.166;2023-04-16T10:12:12;9.55;;;3.97;;
15629;SDS011;7914;50.842;0.166;2023-04-16T10:14:38;9.98;;;4.32;;
15629;SDS011;7914;50.842;0.166;2023-04-16T10:17:05;11.07;;;4.90;;
15629;SDS011;7914;50.842;0.166;2023-04-16T10:19:31;9.65;;;4.18;;
15629;SDS011;7914;50.842;0.166;2023-04-16T10:21:57;10.45;;;4.88;;
15629;SDS011;7914;50.842;0.166;2023-04-16T10:24:24;10.23;;;4.30;;
15629;SDS011;7914;50.842;0.166;2023-04-16T10:26:53;10.05;;;4.00;;
15629;SDS011;7914;50.842;0.166;2023-04-16T10:29:19;11.77;;;5.38;;
15629;SDS011;7914;50.842;0.166;2023-04-16T10:31:46;11.63;;;4.60;;
15629;SDS011;7914;50.842;0.166;2023-04-16T10:34:13;10.57;;;4.80;;
15629;SDS011;7914;50.842;0.166;2023-04-16T10:36:40;9.85;;;4.32;;
15629;SDS011;7914;50.842;0.166;2023-04-16T10:39:10;10.38;;;5.05;;
15629;SDS011;7914;50.842;0.166;2023-04-16T10:41:38;10.73;;;4.28;;
15629;SDS011;7914;50.842;0.166;2023-04-16T10:46:43;10.75;;;5.07;;
15629;SDS011;7914;50.842;0.166;2023-04-16T10:49:17;9.43;;;4.45;;
15629;SDS011;7914;50.842;0.166;2023-04-16T10:51:54;10.20;;;4.57;;
15629;SDS011;7914;50.842;0.166;2023-04-16T10:54:25;15.65;;;4.68;;
15629;SDS011;7914;50.842;0.166;2023-04-16T10:56:53;11.02;;;4.57;;
15629;SDS011;7914;50.842;0.166;2023-04-16T10:59:21;8.93;;;4.15;;
15629;SDS011;7914;50.842;0.166;2023-04-16T11:01:52;9.32;;;4.40;;
15629;SDS011;7914;50.842;0.166;2023-04-16T11:12:33;11.18;;;4.50;;
15629;SDS011;7914;50.842;0.166;2023-04-16T11:15:05;12.70;;;4.50;;
15629;SDS011;7914;50.842;0.166;2023-04-16T11:17:37;11.30;;;4.05;;
15629;SDS011;7914;50.842;0.166;2023-04-16T11:20:06;14.50;;;4.90;;
15629;SDS011;7914;50.842;0.166;2023-04-16T11:22:42;11.60;;;4.30;;
15629;SDS011;7914;50.842;0.166;2023-04-16T11:25:11;8.77;;;4.40;;
15629;SDS011;7914;50.842;0.166;2023-04-16T11:27:37;10.10;;;4.20;;
15629;SDS011;7914;50.842;0.166;2023-04-16T11:30:04;12.23;;;4.75;;
15629;SDS011;7914;50.842;0.166;2023-04-16T11:32:33;10.23;;;4.13;;
15629;SDS011;7914;50.842;0.166;2023-04-16T11:35:00;10.27;;;4.45;;
15629;SDS011;7914;50.842;0.166;2023-04-16T11:37:35;8.73;;;4.95;;
15629;SDS011;7914;50.842;0.166;2023-04-16T11:40:05;9.07;;;4.70;;
15629;SDS011;7914;50.842;0.166;2023-04-16T11:46:04;11.18;;;5.28;;
15629;SDS011;7914;50.842;0.166;2023-04-16T11:48:46;9.38;;;4.60;;
15629;SDS011;7914;50.842;0.166;2023-04-16T11:51:13;13.05;;;4.25;;
15629;SDS011;7914;50.842;0.166;2023-04-16T11:53:49;9.05;;;4.25;;
15629;SDS011;7914;50.842;0.166;2023-04-16T11:56:26;9.82;;;4.65;;
15629;SDS011;7914;50.842;0.166;2023-04-16T11:59:06;11.77;;;5.32;;
15629;SDS011;7914;50.842;0.166;2023-04-16T12:01:35;12.02;;;4.68;;
15629;SDS011;7914;50.842;0.166;2023-04-16T12:04:02;13.10;;;5.60;;
15629;SDS011;7914;50.842;0.166;2023-04-16T12:06:28;12.98;;;4.22;;
15629;SDS011;7914;50.842;0.166;2023-04-16T12:08:56;11.95;;;4.22;;
15629;SDS011;7914;50.842;0.166;2023-04-16T12:11:38;12.68;;;4.72;;
15629;SDS011;7914;50.842;0.166;2023-04-16T12:14:11;10.63;;;3.90;;
15629;SDS011;7914;50.842;0.166;2023-04-16T12:16:37;10.32;;;4.25;;
15629;SDS011;7914;50.842;0.166;2023-04-16T12:19:03;10.35;;;4.55;;
15629;SDS011;7914;50.842;0.166;2023-04-16T12:21:42;11.00;;;4.88;;
15629;SDS011;7914;50.842;0.166;2023-04-16T12:24:14;13.15;;;5.05;;
15629;SDS011;7914;50.842;0.166;2023-04-16T12:26:44;9.02;;;4.70;;
15629;SDS011;7914;50.842;0.166;2023-04-16T12:29:22;11.18;;;4.68;;
15629;SDS011;7914;50.842;0.166;2023-04-16T12:31:50;9.50;;;4.43;;
15629;SDS011;7914;50.842;0.166;2023-04-16T12:34:16;11.77;;;4.53;;
15629;SDS011;7914;50.842;0.166;2023-04-16T12:36:44;14.10;;;4.95;;
15629;SDS011;7914;50.842;0.166;2023-04-16T12:39:10;9.82;;;4.03;;
15629;SDS011;7914;50.842;0.166;2023-04-16T12:41:37;10.93;;;4.63;;
15629;SDS011;7914;50.842;0.166;2023-04-16T12:44:15;10.82;;;4.22;;
15629;SDS011;7914;50.842;0.166;2023-04-16T12:46:42;10.65;;;4.93;;
15629;SDS011;7914;50.842;0.166;2023-04-16T12:49:08;12.30;;;5.22;;
15629;SDS011;7914;50.842;0.166;2023-04-16T12:51:35;13.82;;;5.43;;
15629;SDS011;7914;50.842;0.166;2023-04-16T12:54:02;12.48;;;5.50;;
15629;SDS011;7914;50.842;0.166;2023-04-16T12:56:29;9.00;;;4.90;;
15629;SDS011;7914;50.842;0.166;2023-04-16T12:58:55;12.05;;;5.18;;
15629;SDS011;7914;50.842;0.166;2023-04-16T13:01:21;12.35;;;4.90;;
15629;SDS011;7914;50.842;0.166;2023-04-16T13:03:47;13.95;;;6.03;;
15629;SDS011;7914;50.842;0.166;2023-04-16T13:06:14;10.75;;;4.90;;
15629;SDS011;7914;50.842;0.166;2023-04-16T13:08:40;13.02;;;5.68;;
15629;SDS011;7914;50.842;0.166;2023-04-16T13:11:09;11.80;;;6.22;;
15629;SDS011;7914;50.842;0.166;2023-04-16T13:13:35;12.15;;;5.13;;
15629;SDS011;7914;50.842;0.166;2023-04-16T13:16:01;10.05;;;4.78;;
15629;SDS011;7914;50.842;0.166;2023-04-16T13:18:32;15.90;;;4.75;;
15629;SDS011;7914;50.842;0.166;2023-04-16T13:20:58;12.90;;;4.93;;
15629;SDS011;7914;50.842;0.166;2023-04-16T13:23:24;9.40;;;5.68;;
15629;SDS011;7914;50.842;0.166;2023-04-16T13:25:51;12.93;;;5.45;;
15629;SDS011;7914;50.842;0.166;2023-04-16T13:28:17;9.20;;;4.88;;
15629;SDS011;7914;50.842;0.166;2023-04-16T13:30:43;9.45;;;4.60;;
15629;SDS011;7914;50.842;0.166;2023-04-16T13:33:10;11.68;;;4.80;;
15629;SDS011;7914;50.842;0.166;2023-04-16T13:35:36;9.90;;;4.43;;
15629;SDS011;7914;50.842;0.166;2023-04-16T13:38:03;11.13;;;5.40;;
15629;SDS011;7914;50.842;0.166;2023-04-16T13:40:30;11.60;;;4.13;;
15629;SDS011;7914;50.842;0.166;2023-04-16T13:42:56;9.73;;;4.22;;
15629;SDS011;7914;50.842;0.166;2023-04-16T13:45:22;7.20;;;4.40;;
15629;SDS011;7914;50.842;0.166;2023-04-16T13:47:47;8.07;;;4.70;;
15629;SDS011;7914;50.842;0.166;2023-04-16T13:50:13;9.73;;;4.50;;
15629;SDS011;7914;50.842;0.166;2023-04-16T13:52:39;9.68;;;4.88;;
15629;SDS011;7914;50.842;0.166;2023-04-16T13:55:05;9.10;;;4.20;;
15629;SDS011;7914;50.842;0.166;2023-04-16T13:57:33;9.13;;;4.22;;
15629;SDS011;7914;50.842;0.166;2023-04-16T13:59:59;9.77;;;4.05;;
15629;SDS011;7914;50.842;0.166;2023-04-16T14:02:24;11.63;;;4.53;;
15629;SDS011;7914;50.842;0.166;2023-04-16T14:04:50;10.35;;;4.72;;
15629;SDS011;7914;50.842;0.166;2023-04-16T14:07:16;13.73;;;4.78;;
15629;SDS011;7914;50.842;0.166;2023-04-16T14:09:42;9.20;;;4.93;;
15629;SDS011;7914;50.842;0.166;2023-04-16T14:12:08;13.52;;;5.30;;
15629;SDS011;7914;50.842;0.166;2023-04-16T14:14:34;10.32;;;4.32;;
15629;SDS011;7914;50.842;0.166;2023-04-16T14:17:00;9.48;;;4.38;;
15629;SDS011;7914;50.842;0.166;2023-04-16T14:19:27;9.90;;;4.40;;
15629;SDS011;7914;50.842;0.166;2023-04-16T14:21:52;10.48;;;4.82;;
15629;SDS011;7914;50.842;0.166;2023-04-16T14:24:18;12.30;;;5.57;;
15629;SDS011;7914;50.842;0.166;2023-04-16T14:26:44;8.77;;;4.68;;
15629;SDS011;7914;50.842;0.166;2023-04-16T14:29:10;9.10;;;4.97;;
15629;SDS011;7914;50.842;0.166;2023-04-16T14:31:35;10.70;;;5.65;;
15629;SDS011;7914;50.842;0.166;2023-04-16T14:34:01;9.23;;;5.00;;
15629;SDS011;7914;50.842;0.166;2023-04-16T14:36:27;11.25;;;5.43;;
15629;SDS011;7914;50.842;0.166;2023-04-16T14:38:54;9.00;;;4.80;;
15629;SDS011;7914;50.842;0.166;2023-04-16T14:41:19;9.40;;;4.82;;
15629;SDS011;7914;50.842;0.166;2023-04-16T14:43:45;7.80;;;4.32;;
15629;SDS011;7914;50.842;0.166;2023-04-16T14:46:11;9.82;;;4.95;;
15629;SDS011;7914;50.842;0.166;2023-04-16T14:48:37;10.73;;;5.55;;
15629;SDS011;7914;50.842;0.166;2023-04-16T14:51:03;8.63;;;5.03;;
15629;SDS011;7914;50.842;0.166;2023-04-16T14:53:28;12.25;;;5.55;;
15629;SDS011;7914;50.842;0.166;2023-04-16T14:55:55;10.35;;;5.03;;
15629;SDS011;7914;50.842;0.166;2023-04-16T14:58:23;11.95;;;4.78;;
15629;SDS011;7914;50.842;0.166;2023-04-16T15:00:49;9.70;;;4.13;;
15629;SDS011;7914;50.842;0.166;2023-04-16T15:03:14;10.75;;;4.65;;
15629;SDS011;7914;50.842;0.166;2023-04-16T15:05:40;10.75;;;4.82;;
15629;SDS011;7914;50.842;0.166;2023-04-16T15:08:06;8.85;;;4.55;;